sensor_id;sensor_type;location;lat;lon;timestamp;temperature;humidity
5459;DHT22;2752;49.992;8.422;2023-05-14T00:00:49;11.90;49.20
5459;DHT22;2752;49.992;8.422;2023-05-14T00:03:16;11.80;49.50
5459;DHT22;2752;49.992;8.422;2023-05-14T00:05:43;11.80;48.90
5459;DHT22;2752;49.992;8.422;2023-05-14T00:08:11;11.70;49.50
5459;DHT22;2752;49.992;8.422;2023-05-14T00:10:37;11.60;52.80
5459;DHT22;2752;49.992;8.422;2023-05-14T00:13:04;11.60;54.90
5459;DHT22;2752;49.992;8.422;2023-05-14T00:15:30;11.60;55.60
5459;DHT22;2752;49.992;8.422;2023-05-14T00:17:57;11.50;57.20
5459;DHT22;2752;49.992;8.422;2023-05-14T00:20:24;11.50;59.30
5459;DHT22;2752;49.992;8.422;2023-05-14T00:22:50;11.50;58.80
5459;DHT22;2752;49.992;8.422;2023-05-14T00:25:18;11.50;60.10
5459;DHT22;2752;49.992;8.422;2023-05-14T00:27:45;11.50;58.40
5459;DHT22;2752;49.992;8.422;2023-05-14T00:30:12;11.60;55.60
5459;DHT22;2752;49.992;8.422;2023-05-14T00:32:38;11.50;52.70
5459;DHT22;2752;49.992;8.422;2023-05-14T00:35:05;11.50;53.50
5459;DHT22;2752;49.992;8.422;2023-05-14T00:37:32;11.50;51.10
5459;DHT22;2752;49.992;8.422;2023-05-14T00:39:59;11.50;49.50
5459;DHT22;2752;49.992;8.422;2023-05-14T00:42:27;11.60;47.30
5459;DHT22;2752;49.992;8.422;2023-05-14T00:44:53;11.60;44.70
5459;DHT22;2752;49.992;8.422;2023-05-14T00:47:20;11.60;41.80
5459;DHT22;2752;49.992;8.422;2023-05-14T00:49:47;11.60;42.80
5459;DHT22;2752;49.992;8.422;2023-05-14T00:52:14;11.50;40.60
5459;DHT22;2752;49.992;8.422;2023-05-14T00:54:41;11.50;42.10
5459;DHT22;2752;49.992;8.422;2023-05-14T00:57:08;11.50;41.30
5459;DHT22;2752;49.992;8.422;2023-05-14T00:59:36;11.50;39.30
5459;DHT22;2752;49.992;8.422;2023-05-14T01:02:05;11.50;38.50
5459;DHT22;2752;49.992;8.422;2023-05-14T01:04:32;11.50;39.20
5459;DHT22;2752;49.992;8.422;2023-05-14T01:07:08;11.50;40.70
5459;DHT22;2752;49.992;8.422;2023-05-14T01:09:41;11.50;40.70
5459;DHT22;2752;49.992;8.422;2023-05-14T01:12:15;11.50;39.20
5459;DHT22;2752;49.992;8.422;2023-05-14T01:14:51;11.50;39.50
5459;DHT22;2752;49.992;8.422;2023-05-14T01:17:20;11.50;43.00
5459;DHT22;2752;49.992;8.422;2023-05-14T01:19:47;11.50;40.80
5459;DHT22;2752;49.992;8.422;2023-05-14T01:22:17;11.50;42.20
5459;DHT22;2752;49.992;8.422;2023-05-14T01:24:43;11.40;44.70
5459;DHT22;2752;49.992;8.422;2023-05-14T01:27:16;11.40;45.90
5459;DHT22;2752;49.992;8.422;2023-05-14T01:29:48;11.40;44.70
5459;DHT22;2752;49.992;8.422;2023-05-14T01:32:19;11.40;47.20
5459;DHT22;2752;49.992;8.422;2023-05-14T01:34:50;11.30;47.80
5459;DHT22;2752;49.992;8.422;2023-05-14T01:37:20;11.40;48.30
5459;DHT22;2752;49.992;8.422;2023-05-14T01:39:48;11.40;47.00
5459;DHT22;2752;49.992;8.422;2023-05-14T01:42:15;11.40;47.60
5459;DHT22;2752;49.992;8.422;2023-05-14T01:44:42;11.40;45.30
5459;DHT22;2752;49.992;8.422;2023-05-14T01:47:08;11.40;45.30
5459;DHT22;2752;49.992;8.422;2023-05-14T01:49:35;11.40;47.00
5459;DHT22;2752;49.992;8.422;2023-05-14T01:52:02;11.30;48.80
5459;DHT22;2752;49.992;8.422;2023-05-14T01:54:30;11.20;51.40
5459;DHT22;2752;49.992;8.422;2023-05-14T01:56:57;11.20;54.00
5459;DHT22;2752;49.992;8.422;2023-05-14T01:59:23;11.20;54.40
5459;DHT22;2752;49.992;8.422;2023-05-14T02:01:50;11.10;54.40
5459;DHT22;2752;49.992;8.422;2023-05-14T02:04:17;11.10;55.40
5459;DHT22;2752;49.992;8.422;2023-05-14T02:06:45;11.00;56.90
5459;DHT22;2752;49.992;8.422;2023-05-14T02:09:11;11.00;57.30
5459;DHT22;2752;49.992;8.422;2023-05-14T02:11:39;11.00;58.00
5459;DHT22;2752;49.992;8.422;2023-05-14T02:14:06;10.90;58.50
5459;DHT22;2752;49.992;8.422;2023-05-14T02:16:32;10.90;59.90
5459;DHT22;2752;49.992;8.422;2023-05-14T02:18:59;10.90;62.40
5459;DHT22;2752;49.992;8.422;2023-05-14T02:21:26;10.90;64.10
5459;DHT22;2752;49.992;8.422;2023-05-14T02:26:20;10.90;63.80
5459;DHT22;2752;49.992;8.422;2023-05-14T02:28:48;10.90;66.60
5459;DHT22;2752;49.992;8.422;2023-05-14T02:31:15;10.90;68.10
5459;DHT22;2752;49.992;8.422;2023-05-14T02:33:43;10.90;69.00
5459;DHT22;2752;49.992;8.422;2023-05-14T02:36:10;10.90;68.40
5459;DHT22;2752;49.992;8.422;2023-05-14T02:38:36;10.90;68.60
5459;DHT22;2752;49.992;8.422;2023-05-14T02:41:03;10.80;68.50
5459;DHT22;2752;49.992;8.422;2023-05-14T02:43:29;10.80;69.80
5459;DHT22;2752;49.992;8.422;2023-05-14T02:45:57;10.80;71.00
5459;DHT22;2752;49.992;8.422;2023-05-14T02:48:24;10.80;72.20
5459;DHT22;2752;49.992;8.422;2023-05-14T02:50:51;10.80;72.40
5459;DHT22;2752;49.992;8.422;2023-05-14T02:53:17;10.70;72.00
5459;DHT22;2752;49.992;8.422;2023-05-14T02:55:44;10.70;72.50
5459;DHT22;2752;49.992;8.422;2023-05-14T02:58:11;10.60;74.20
5459;DHT22;2752;49.992;8.422;2023-05-14T03:00:37;10.60;74.90
5459;DHT22;2752;49.992;8.422;2023-05-14T03:03:05;10.60;76.50
5459;DHT22;2752;49.992;8.422;2023-05-14T03:05:32;10.50;76.50
5459;DHT22;2752;49.992;8.422;2023-05-14T03:07:59;10.50;77.80
5459;DHT22;2752;49.992;8.422;2023-05-14T03:10:26;10.40;79.50
5459;DHT22;2752;49.992;8.422;2023-05-14T03:12:52;10.40;80.80
5459;DHT22;2752;49.992;8.422;2023-05-14T03:15:19;10.40;81.90
5459;DHT22;2752;49.992;8.422;2023-05-14T03:17:46;10.40;82.80
5459;DHT22;2752;49.992;8.422;2023-05-14T03:20:18;10.30;82.90
5459;DHT22;2752;49.992;8.422;2023-05-14T03:22:45;10.30;82.60
5459;DHT22;2752;49.992;8.422;2023-05-14T03:25:15;10.30;83.30
5459;DHT22;2752;49.992;8.422;2023-05-14T03:27:41;10.20;83.00
5459;DHT22;2752;49.992;8.422;2023-05-14T03:30:09;10.20;84.70
5459;DHT22;2752;49.992;8.422;2023-05-14T03:32:36;10.20;84.30
5459;DHT22;2752;49.992;8.422;2023-05-14T03:35:03;10.20;84.70
5459;DHT22;2752;49.992;8.422;2023-05-14T03:37:31;10.20;84.90
5459;DHT22;2752;49.992;8.422;2023-05-14T03:39:58;10.10;85.60
5459;DHT22;2752;49.992;8.422;2023-05-14T03:42:24;10.10;86.30
5459;DHT22;2752;49.992;8.422;2023-05-14T03:44:51;10.10;86.40
5459;DHT22;2752;49.992;8.422;2023-05-14T03:47:18;10.10;86.80
5459;DHT22;2752;49.992;8.422;2023-05-14T03:49:44;10.00;86.50
5459;DHT22;2752;49.992;8.422;2023-05-14T03:52:11;10.00;87.20
5459;DHT22;2752;49.992;8.422;2023-05-14T03:54:39;10.10;88.10
5459;DHT22;2752;49.992;8.422;2023-05-14T03:57:06;10.00;87.40
5459;DHT22;2752;49.992;8.422;2023-05-14T03:59:32;10.00;87.70
5459;DHT22;2752;49.992;8.422;2023-05-14T04:01:59;10.10;87.60
5459;DHT22;2752;49.992;8.422;2023-05-14T04:04:26;10.10;87.60
5459;DHT22;2752;49.992;8.422;2023-05-14T04:06:53;10.00;87.70
5459;DHT22;2752;49.992;8.422;2023-05-14T04:09:19;10.10;89.00
5459;DHT22;2752;49.992;8.422;2023-05-14T04:11:47;10.10;88.90
5459;DHT22;2752;49.992;8.422;2023-05-14T04:14:14;10.10;90.00
5459;DHT22;2752;49.992;8.422;2023-05-14T04:16:41;10.10;88.40
5459;DHT22;2752;49.992;8.422;2023-05-14T04:19:07;10.20;88.30
5459;DHT22;2752;49.992;8.422;2023-05-14T04:21:34;10.20;88.40
5459;DHT22;2752;49.992;8.422;2023-05-14T04:24:00;10.10;88.40
5459;DHT22;2752;49.992;8.422;2023-05-14T04:26:27;10.20;88.80
5459;DHT22;2752;49.992;8.422;2023-05-14T04:28:55;10.30;88.70
5459;DHT22;2752;49.992;8.422;2023-05-14T04:31:22;10.30;87.70
5459;DHT22;2752;49.992;8.422;2023-05-14T04:33:49;10.30;87.40
5459;DHT22;2752;49.992;8.422;2023-05-14T04:36:15;10.30;86.50
5459;DHT22;2752;49.992;8.422;2023-05-14T04:38:42;10.40;86.80
5459;DHT22;2752;49.992;8.422;2023-05-14T04:41:09;10.40;86.10
5459;DHT22;2752;49.992;8.422;2023-05-14T04:43:35;10.40;85.80
5459;DHT22;2752;49.992;8.422;2023-05-14T04:46:03;10.40;85.90
5459;DHT22;2752;49.992;8.422;2023-05-14T04:48:30;10.40;85.00
5459;DHT22;2752;49.992;8.422;2023-05-14T04:50:57;10.50;85.40
5459;DHT22;2752;49.992;8.422;2023-05-14T04:53:23;10.50;84.40
5459;DHT22;2752;49.992;8.422;2023-05-14T04:55:50;10.50;84.40
5459;DHT22;2752;49.992;8.422;2023-05-14T04:58:18;10.50;82.60
5459;DHT22;2752;49.992;8.422;2023-05-14T05:00:45;10.60;82.50
5459;DHT22;2752;49.992;8.422;2023-05-14T05:03:12;10.60;82.30
5459;DHT22;2752;49.992;8.422;2023-05-14T05:05:39;10.60;82.10
5459;DHT22;2752;49.992;8.422;2023-05-14T05:08:06;10.70;81.60
5459;DHT22;2752;49.992;8.422;2023-05-14T05:10:32;10.70;82.50
5459;DHT22;2752;49.992;8.422;2023-05-14T05:12:59;10.80;78.00
5459;DHT22;2752;49.992;8.422;2023-05-14T05:15:26;10.80;78.00
5459;DHT22;2752;49.992;8.422;2023-05-14T05:17:52;10.90;75.40
5459;DHT22;2752;49.992;8.422;2023-05-14T05:20:20;10.90;76.70
5459;DHT22;2752;49.992;8.422;2023-05-14T05:22:47;10.90;74.40
5459;DHT22;2752;49.992;8.422;2023-05-14T05:25:14;10.90;75.10
5459;DHT22;2752;49.992;8.422;2023-05-14T05:27:41;11.00;76.70
5459;DHT22;2752;49.992;8.422;2023-05-14T05:30:08;11.10;76.80
5459;DHT22;2752;49.992;8.422;2023-05-14T05:32:35;11.10;74.20
5459;DHT22;2752;49.992;8.422;2023-05-14T05:35:02;11.20;74.10
5459;DHT22;2752;49.992;8.422;2023-05-14T05:37:30;11.20;73.10
5459;DHT22;2752;49.992;8.422;2023-05-14T05:39:57;11.20;72.70
5459;DHT22;2752;49.992;8.422;2023-05-14T05:42:24;11.20;72.40
5459;DHT22;2752;49.992;8.422;2023-05-14T05:44:51;11.30;70.90
5459;DHT22;2752;49.992;8.422;2023-05-14T05:47:18;11.40;69.50
5459;DHT22;2752;49.992;8.422;2023-05-14T05:49:44;11.40;69.70
5459;DHT22;2752;49.992;8.422;2023-05-14T05:52:11;11.50;68.20
5459;DHT22;2752;49.992;8.422;2023-05-14T05:54:39;11.50;66.50
5459;DHT22;2752;49.992;8.422;2023-05-14T05:57:05;11.70;67.10
5459;DHT22;2752;49.992;8.422;2023-05-14T05:59:32;11.70;63.90
5459;DHT22;2752;49.992;8.422;2023-05-14T06:01:59;11.80;61.00
5459;DHT22;2752;49.992;8.422;2023-05-14T06:04:25;11.90;60.40
5459;DHT22;2752;49.992;8.422;2023-05-14T06:06:52;12.00;60.00
5459;DHT22;2752;49.992;8.422;2023-05-14T06:09:19;12.20;57.80
5459;DHT22;2752;49.992;8.422;2023-05-14T06:11:47;12.30;51.70
5459;DHT22;2752;49.992;8.422;2023-05-14T06:14:13;12.50;50.40
5459;DHT22;2752;49.992;8.422;2023-05-14T06:16:40;12.60;48.20
5459;DHT22;2752;49.992;8.422;2023-05-14T06:19:07;12.90;45.40
5459;DHT22;2752;49.992;8.422;2023-05-14T06:21:34;13.10;44.50
5459;DHT22;2752;49.992;8.422;2023-05-14T06:24:01;13.10;38.30
5459;DHT22;2752;49.992;8.422;2023-05-14T06:26:27;13.30;34.80
5459;DHT22;2752;49.992;8.422;2023-05-14T06:28:55;13.30;33.90
5459;DHT22;2752;49.992;8.422;2023-05-14T06:31:22;13.50;31.30
5459;DHT22;2752;49.992;8.422;2023-05-14T06:33:49;13.70;28.40
5459;DHT22;2752;49.992;8.422;2023-05-14T06:36:15;13.80;21.70
5459;DHT22;2752;49.992;8.422;2023-05-14T06:38:42;13.90;14.80
5459;DHT22;2752;49.992;8.422;2023-05-14T06:41:08;14.00;6.10
5459;DHT22;2752;49.992;8.422;2023-05-14T06:43:35;14.00;1.00
5459;DHT22;2752;49.992;8.422;2023-05-14T06:46:03;14.10;1.00
5459;DHT22;2752;49.992;8.422;2023-05-14T06:48:30;14.20;1.00
5459;DHT22;2752;49.992;8.422;2023-05-14T06:50:56;14.40;1.00
5459;DHT22;2752;49.992;8.422;2023-05-14T06:53:23;14.50;1.00
5459;DHT22;2752;49.992;8.422;2023-05-14T06:55:50;14.70;1.00
5459;DHT22;2752;49.992;8.422;2023-05-14T06:58:16;14.80;1.00
5459;DHT22;2752;49.992;8.422;2023-05-14T07:00:43;15.00;1.00
5459;DHT22;2752;49.992;8.422;2023-05-14T07:03:11;15.00;1.00
5459;DHT22;2752;49.992;8.422;2023-05-14T07:05:37;15.20;1.00
5459;DHT22;2752;49.992;8.422;2023-05-14T07:08:05;15.30;1.00
5459;DHT22;2752;49.992;8.422;2023-05-14T07:10:32;15.50;1.00
5459;DHT22;2752;49.992;8.422;2023-05-14T07:12:59;15.60;1.00
5459;DHT22;2752;49.992;8.422;2023-05-14T07:15:25;15.80;1.00
5459;DHT22;2752;49.992;8.422;2023-05-14T07:17:52;15.90;1.00
5459;DHT22;2752;49.992;8.422;2023-05-14T07:20:20;15.80;1.00
5459;DHT22;2752;49.992;8.422;2023-05-14T07:22:48;15.60;1.00
5459;DHT22;2752;49.992;8.422;2023-05-14T07:25:14;15.80;1.00
5459;DHT22;2752;49.992;8.422;2023-05-14T07:27:41;15.90;1.00
5459;DHT22;2752;49.992;8.422;2023-05-14T07:30:08;15.90;1.00
5459;DHT22;2752;49.992;8.422;2023-05-14T07:32:35;16.00;1.00
5459;DHT22;2752;49.992;8.422;2023-05-14T07:35:01;16.10;1.00
5459;DHT22;2752;49.992;8.422;2023-05-14T07:37:29;16.10;1.00
5459;DHT22;2752;49.992;8.422;2023-05-14T07:39:56;16.20;1.00
5459;DHT22;2752;49.992;8.422;2023-05-14T07:42:23;16.40;1.00
5459;DHT22;2752;49.992;8.422;2023-05-14T07:44:49;16.50;1.00
5459;DHT22;2752;49.992;8.422;2023-05-14T07:47:16;16.50;1.00
5459;DHT22;2752;49.992;8.422;2023-05-14T07:49:43;16.70;1.00
5459;DHT22;2752;49.992;8.422;2023-05-14T07:52:10;16.60;1.00
5459;DHT22;2752;49.992;8.422;2023-05-14T07:54:38;16.60;1.00
5459;DHT22;2752;49.992;8.422;2023-05-14T07:57:04;16.60;1.00
5459;DHT22;2752;49.992;8.422;2023-05-14T07:59:31;16.50;1.00
5459;DHT22;2752;49.992;8.422;2023-05-14T08:01:58;16.40;1.00
5459;DHT22;2752;49.992;8.422;2023-05-14T08:04:25;16.50;1.00
5459;DHT22;2752;49.992;8.422;2023-05-14T08:06:52;16.50;1.00
5459;DHT22;2752;49.992;8.422;2023-05-14T08:09:19;16.60;1.00
5459;DHT22;2752;49.992;8.422;2023-05-14T08:11:47;16.60;1.00
5459;DHT22;2752;49.992;8.422;2023-05-14T08:14:14;16.60;1.00
5459;DHT22;2752;49.992;8.422;2023-05-14T08:16:41;16.50;1.00
5459;DHT22;2752;49.992;8.422;2023-05-14T08:19:07;16.70;1.00
5459;DHT22;2752;49.992;8.422;2023-05-14T08:21:34;16.60;1.00
5459;DHT22;2752;49.992;8.422;2023-05-14T08:24:01;16.60;1.00
5459;DHT22;2752;49.992;8.422;2023-05-14T08:26:28;16.40;1.00
5459;DHT22;2752;49.992;8.422;2023-05-14T08:28:55;16.50;1.00
5459;DHT22;2752;49.992;8.422;2023-05-14T08:31:22;16.60;1.00
5459;DHT22;2752;49.992;8.422;2023-05-14T08:33:49;16.70;1.00
5459;DHT22;2752;49.992;8.422;2023-05-14T08:36:15;16.80;1.00
5459;DHT22;2752;49.992;8.422;2023-05-14T08:38:42;16.90;1.00
5459;DHT22;2752;49.992;8.422;2023-05-14T08:41:10;17.20;1.00
5459;DHT22;2752;49.992;8.422;2023-05-14T08:43:44;17.20;1.00
5459;DHT22;2752;49.992;8.422;2023-05-14T08:46:16;17.40;1.00
5459;DHT22;2752;49.992;8.422;2023-05-14T08:48:47;17.50;1.00
5459;DHT22;2752;49.992;8.422;2023-05-14T08:51:15;17.80;1.00
5459;DHT22;2752;49.992;8.422;2023-05-14T08:53:43;17.90;1.00
5459;DHT22;2752;49.992;8.422;2023-05-14T08:56:09;17.90;1.00
5459;DHT22;2752;49.992;8.422;2023-05-14T08:58:37;17.90;1.00
5459;DHT22;2752;49.992;8.422;2023-05-14T09:01:04;18.00;1.00
5459;DHT22;2752;49.992;8.422;2023-05-14T09:03:32;18.10;1.00
5459;DHT22;2752;49.992;8.422;2023-05-14T09:06:00;18.20;1.00
5459;DHT22;2752;49.992;8.422;2023-05-14T09:08:27;18.30;1.00
5459;DHT22;2752;49.992;8.422;2023-05-14T09:10:54;18.20;1.00
5459;DHT22;2752;49.992;8.422;2023-05-14T09:13:21;18.20;1.00
5459;DHT22;2752;49.992;8.422;2023-05-14T09:15:48;18.40;1.00
5459;DHT22;2752;49.992;8.422;2023-05-14T09:18:16;18.60;1.00
5459;DHT22;2752;49.992;8.422;2023-05-14T09:20:46;18.60;1.00
5459;DHT22;2752;49.992;8.422;2023-05-14T09:23:12;18.70;1.00
5459;DHT22;2752;49.992;8.422;2023-05-14T09:25:39;18.70;1.00
5459;DHT22;2752;49.992;8.422;2023-05-14T09:28:07;18.70;1.00
5459;DHT22;2752;49.992;8.422;2023-05-14T09:30:34;18.80;1.00
5459;DHT22;2752;49.992;8.422;2023-05-14T09:33:01;18.70;1.00
5459;DHT22;2752;49.992;8.422;2023-05-14T09:35:29;18.80;1.00
5459;DHT22;2752;49.992;8.422;2023-05-14T09:37:58;18.60;1.00
5459;DHT22;2752;49.992;8.422;2023-05-14T09:40:24;18.50;1.00
5459;DHT22;2752;49.992;8.422;2023-05-14T09:42:51;18.60;1.00
5459;DHT22;2752;49.992;8.422;2023-05-14T09:45:18;18.60;1.00
5459;DHT22;2752;49.992;8.422;2023-05-14T09:47:45;18.50;1.00
5459;DHT22;2752;49.992;8.422;2023-05-14T09:50:11;18.50;1.00
5459;DHT22;2752;49.992;8.422;2023-05-14T09:52:38;18.50;1.00
5459;DHT22;2752;49.992;8.422;2023-05-14T09:55:07;18.40;1.00
5459;DHT22;2752;49.992;8.422;2023-05-14T09:57:34;18.40;1.00
5459;DHT22;2752;49.992;8.422;2023-05-14T10:00:01;18.40;1.00
5459;DHT22;2752;49.992;8.422;2023-05-14T10:02:31;18.60;1.00
5459;DHT22;2752;49.992;8.422;2023-05-14T10:05:03;18.80;1.00
5459;DHT22;2752;49.992;8.422;2023-05-14T10:07:34;19.10;1.00
5459;DHT22;2752;49.992;8.422;2023-05-14T10:10:02;19.20;1.00
5459;DHT22;2752;49.992;8.422;2023-05-14T10:12:33;19.30;1.00
5459;DHT22;2752;49.992;8.422;2023-05-14T10:15:05;19.40;1.00
5459;DHT22;2752;49.992;8.422;2023-05-14T10:17:36;19.60;1.00
5459;DHT22;2752;49.992;8.422;2023-05-14T10:20:07;19.40;1.00
5459;DHT22;2752;49.992;8.422;2023-05-14T10:22:35;19.30;1.00
5459;DHT22;2752;49.992;8.422;2023-05-14T10:25:02;19.40;1.00
5459;DHT22;2752;49.992;8.422;2023-05-14T10:27:31;19.30;1.00
5459;DHT22;2752;49.992;8.422;2023-05-14T10:29:58;19.20;1.00
5459;DHT22;2752;49.992;8.422;2023-05-14T10:32:25;19.20;1.00
5459;DHT22;2752;49.992;8.422;2023-05-14T10:34:52;19.00;1.00
5459;DHT22;2752;49.992;8.422;2023-05-14T10:37:21;19.10;1.00
5459;DHT22;2752;49.992;8.422;2023-05-14T10:39:49;19.00;1.00
5459;DHT22;2752;49.992;8.422;2023-05-14T10:42:18;18.90;1.00
5459;DHT22;2752;49.992;8.422;2023-05-14T10:44:50;18.80;1.00
5459;DHT22;2752;49.992;8.422;2023-05-14T10:47:17;18.70;1.00
5459;DHT22;2752;49.992;8.422;2023-05-14T10:49:45;18.70;1.00
5459;DHT22;2752;49.992;8.422;2023-05-14T10:52:16;18.60;1.00
5459;DHT22;2752;49.992;8.422;2023-05-14T10:54:51;18.80;1.00
5459;DHT22;2752;49.992;8.422;2023-05-14T10:57:18;18.80;1.00
5459;DHT22;2752;49.992;8.422;2023-05-14T10:59:48;18.70;1.00
5459;DHT22;2752;49.992;8.422;2023-05-14T11:02:22;18.70;1.00
5459;DHT22;2752;49.992;8.422;2023-05-14T11:04:54;18.80;1.00
5459;DHT22;2752;49.992;8.422;2023-05-14T11:07:24;18.80;1.00
5459;DHT22;2752;49.992;8.422;2023-05-14T11:09:52;18.60;1.00
5459;DHT22;2752;49.992;8.422;2023-05-14T11:12:20;18.70;1.00
5459;DHT22;2752;49.992;8.422;2023-05-14T11:14:49;18.70;1.00
5459;DHT22;2752;49.992;8.422;2023-05-14T11:17:16;19.10;1.00
5459;DHT22;2752;49.992;8.422;2023-05-14T11:19:43;19.30;1.00
5459;DHT22;2752;49.992;8.422;2023-05-14T11:22:10;19.50;1.00
5459;DHT22;2752;49.992;8.422;2023-05-14T11:24:38;19.60;1.00
5459;DHT22;2752;49.992;8.422;2023-05-14T11:27:06;19.80;1.00
5459;DHT22;2752;49.992;8.422;2023-05-14T11:29:33;19.90;1.00
5459;DHT22;2752;49.992;8.422;2023-05-14T11:32:01;20.10;1.00
5459;DHT22;2752;49.992;8.422;2023-05-14T11:34:28;20.20;1.00
5459;DHT22;2752;49.992;8.422;2023-05-14T11:36:55;20.20;1.00
5459;DHT22;2752;49.992;8.422;2023-05-14T11:39:21;19.90;1.00
5459;DHT22;2752;49.992;8.422;2023-05-14T11:41:48;20.10;1.00
5459;DHT22;2752;49.992;8.422;2023-05-14T11:44:15;20.30;1.00
5459;DHT22;2752;49.992;8.422;2023-05-14T11:46:53;20.60;1.00
5459;DHT22;2752;49.992;8.422;2023-05-14T11:49:21;20.50;1.00
5459;DHT22;2752;49.992;8.422;2023-05-14T11:51:48;20.70;1.00
5459;DHT22;2752;49.992;8.422;2023-05-14T11:54:15;20.60;1.00
5459;DHT22;2752;49.992;8.422;2023-05-14T11:56:41;20.20;1.00
5459;DHT22;2752;49.992;8.422;2023-05-14T11:59:09;20.20;1.00
5459;DHT22;2752;49.992;8.422;2023-05-14T12:01:37;20.20;1.00
5459;DHT22;2752;49.992;8.422;2023-05-14T12:04:04;20.20;1.00
5459;DHT22;2752;49.992;8.422;2023-05-14T12:06:32;20.40;1.00
5459;DHT22;2752;49.992;8.422;2023-05-14T12:08:59;20.60;1.00
5459;DHT22;2752;49.992;8.422;2023-05-14T12:11:29;20.20;1.00
5459;DHT22;2752;49.992;8.422;2023-05-14T12:13:56;20.10;1.00
5459;DHT22;2752;49.992;8.422;2023-05-14T12:16:28;20.00;1.00
5459;DHT22;2752;49.992;8.422;2023-05-14T12:18:58;19.80;1.00
5459;DHT22;2752;49.992;8.422;2023-05-14T12:21:26;19.60;1.00
5459;DHT22;2752;49.992;8.422;2023-05-14T12:23:57;19.60;1.00
5459;DHT22;2752;49.992;8.422;2023-05-14T12:26:25;19.80;1.00
5459;DHT22;2752;49.992;8.422;2023-05-14T12:28:56;20.00;1.00
5459;DHT22;2752;49.992;8.422;2023-05-14T12:31:27;20.00;1.00
5459;DHT22;2752;49.992;8.422;2023-05-14T12:33:54;20.10;1.00
5459;DHT22;2752;49.992;8.422;2023-05-14T12:36:20;20.30;1.00
5459;DHT22;2752;49.992;8.422;2023-05-14T12:38:47;20.50;1.00
5459;DHT22;2752;49.992;8.422;2023-05-14T12:41:15;20.60;1.00
5459;DHT22;2752;49.992;8.422;2023-05-14T12:43:43;20.90;1.00
5459;DHT22;2752;49.992;8.422;2023-05-14T12:46:10;21.10;1.00
5459;DHT22;2752;49.992;8.422;2023-05-14T12:48:36;21.40;1.00
5459;DHT22;2752;49.992;8.422;2023-05-14T12:51:03;21.50;1.00
